sensor_id;sensor_type;location;lat;lon;timestamp;P1;P4;P2;P0;N10;N4;N25;N1;N05;TS
78695;SPS30;68030;51.980;5.646;2023-09-19T00:00:26;2.2;2.1;2.0;1.8;;;;2.0;57.0;
78695;SPS30;68030;51.980;5.646;2023-09-19T00:02:56;1.8;1.8;1.7;1.5;;;;2.0;63.0;
78695;SPS30;68030;51.980;5.646;2023-09-19T00:05:27;1.6;1.6;1.5;1.4;;;;2.0;64.0;
78695;SPS30;68030;51.980;5.646;2023-09-19T00:07:57;1.8;1.7;1.6;1.4;;;;2.0;66.0;
78695;SPS30;68030;51.980;5.646;2023-09-19T00:10:26;2.2;2.1;2.0;1.8;;;;2.0;65.0;
78695;SPS30;68030;51.980;5.646;2023-09-19T00:12:57;2.5;2.4;2.2;1.9;;;;2.0;65.0;
78695;SPS30;68030;51.980;5.646;2023-09-19T00:15:27;2.5;2.4;2.2;1.8;;;;2.0;65.0;
78695;SPS30;68030;51.980;5.646;2023-09-19T00:17:56;2.1;2.0;1.8;1.4;;;;2.0;65.0;
78695;SPS30;68030;51.980;5.646;2023-09-19T00:20:25;2.6;2.5;2.2;1.8;;;;2.0;64.0;
78695;SPS30;68030;51.980;5.646;2023-09-19T00:22:55;2.4;2.3;2.1;1.8;;;;2.0;64.0;
78695;SPS30;68030;51.980;5.646;2023-09-19T00:25:30;2.6;2.4;2.2;1.7;;;;2.0;63.0;
78695;SPS30;68030;51.980;5.646;2023-09-19T00:28:01;2.1;2.0;1.8;1.5;;;;2.0;61.0;
78695;SPS30;68030;51.980;5.646;2023-09-19T00:30:30;3.0;2.9;2.6;2.1;;;;2.0;59.0;
78695;SPS30;68030;51.980;5.646;2023-09-19T00:32:59;2.6;2.5;2.3;1.9;;;;2.0;59.0;
78695;SPS30;68030;51.980;5.646;2023-09-19T00:35:32;2.0;1.9;1.7;1.4;;;;2.0;59.0;
78695;SPS30;68030;51.980;5.646;2023-09-19T00:38:03;2.2;2.1;1.9;1.6;;;;2.0;60.0;
78695;SPS30;68030;51.980;5.646;2023-09-19T00:40:33;2.0;1.9;1.7;1.4;;;;2.0;61.0;
78695;SPS30;68030;51.980;5.646;2023-09-19T00:43:03;2.1;2.0;1.8;1.5;;;;2.0;64.0;
78695;SPS30;68030;51.980;5.646;2023-09-19T00:45:31;2.5;2.4;2.2;1.8;;;;2.0;71.0;
78695;SPS30;68030;51.980;5.646;2023-09-19T00:48:02;2.6;2.5;2.2;1.9;;;;2.0;78.0;
78695;SPS30;68030;51.980;5.646;2023-09-19T00:50:37;2.9;2.8;2.5;2.0;;;;2.0;78.0;
78695;SPS30;68030;51.980;5.646;2023-09-19T00:53:10;2.9;2.8;2.4;2.0;;;;2.0;80.0;
78695;SPS30;68030;51.980;5.646;2023-09-19T00:55:44;3.0;2.8;2.5;2.0;;;;2.0;83.0;
78695;SPS30;68030;51.980;5.646;2023-09-19T00:58:14;2.4;2.3;2.0;1.6;;;;2.0;82.0;
78695;SPS30;68030;51.980;5.646;2023-09-19T01:00:46;2.6;2.5;2.2;1.7;;;;2.0;82.0;
78695;SPS30;68030;51.980;5.646;2023-09-19T01:03:16;2.9;2.7;2.4;1.9;;;;2.0;83.0;
78695;SPS30;68030;51.980;5.646;2023-09-19T01:05:47;3.5;3.3;2.9;2.3;;;;2.0;89.0;
78695;SPS30;68030;51.980;5.646;2023-09-19T01:08:16;3.3;3.1;2.7;2.0;;;;2.0;88.0;
78695;SPS30;68030;51.980;5.646;2023-09-19T01:10:46;3.1;2.9;2.5;2.0;;;;2.0;88.0;
78695;SPS30;68030;51.980;5.646;2023-09-19T01:13:26;2.8;2.7;2.5;2.1;;;;2.0;91.0;
78695;SPS30;68030;51.980;5.646;2023-09-19T01:16:03;3.0;2.8;2.6;2.1;;;;2.0;91.0;
78695;SPS30;68030;51.980;5.646;2023-09-19T01:18:43;2.8;2.7;2.4;2.0;;;;2.0;92.0;
78695;SPS30;68030;51.980;5.646;2023-09-19T01:21:21;2.7;2.5;2.3;1.8;;;;2.0;93.0;
78695;SPS30;68030;51.980;5.646;2023-09-19T01:24:05;3.2;3.1;2.8;2.2;;;;2.0;101.0;
78695;SPS30;68030;51.980;5.646;2023-09-19T01:27:02;3.6;3.4;3.1;2.5;;;;2.0;101.0;
78695;SPS30;68030;51.980;5.646;2023-09-19T01:29:51;3.1;3.0;2.7;2.1;;;;2.0;100.0;
78695;SPS30;68030;51.980;5.646;2023-09-19T01:32:21;3.3;3.1;2.7;2.1;;;;2.0;99.0;
78695;SPS30;68030;51.980;5.646;2023-09-19T01:34:53;3.9;3.7;3.2;2.5;;;;2.0;97.0;
78695;SPS30;68030;51.980;5.646;2023-09-19T01:37:30;3.7;3.5;3.0;2.3;;;;2.0;95.0;
78695;SPS30;68030;51.980;5.646;2023-09-19T01:40:00;4.3;4.0;3.4;2.5;;;;2.0;94.0;
78695;SPS30;68030;51.980;5.646;2023-09-19T01:42:38;3.9;3.7;3.1;2.3;;;;1.0;93.0;
78695;SPS30;68030;51.980;5.646;2023-09-19T01:45:11;4.1;3.8;3.2;2.4;;;;1.0;92.0;
78695;SPS30;68030;51.980;5.646;2023-09-19T01:47:48;3.5;3.3;2.8;2.0;;;;1.0;92.0;
78695;SPS30;68030;51.980;5.646;2023-09-19T01:50:24;4.4;4.1;3.4;2.5;;;;1.0;92.0;
78695;SPS30;68030;51.980;5.646;2023-09-19T01:53:04;3.5;3.2;2.7;2.0;;;;2.0;87.0;
78695;SPS30;68030;51.980;5.646;2023-09-19T01:55:41;3.3;3.1;2.7;2.1;;;;2.0;84.0;
78695;SPS30;68030;51.980;5.646;2023-09-19T01:58:16;3.6;3.4;2.9;2.2;;;;2.0;82.0;
78695;SPS30;68030;51.980;5.646;2023-09-19T02:00:49;3.6;3.4;3.0;2.4;;;;2.0;79.0;
78695;SPS30;68030;51.980;5.646;2023-09-19T02:03:22;3.8;3.6;3.2;2.6;;;;2.0;78.0;
78695;SPS30;68030;51.980;5.646;2023-09-19T02:05:53;2.9;2.7;2.4;2.0;;;;2.0;77.0;
78695;SPS30;68030;51.980;5.646;2023-09-19T02:08:23;3.0;2.8;2.5;1.9;;;;2.0;77.0;
78695;SPS30;68030;51.980;5.646;2023-09-19T02:10:51;3.7;3.5;2.9;2.2;;;;2.0;77.0;
78695;SPS30;68030;51.980;5.646;2023-09-19T02:13:21;3.9;3.6;3.0;2.2;;;;2.0;78.0;
78695;SPS30;68030;51.980;5.646;2023-09-19T02:15:54;3.8;3.6;3.0;2.1;;;;2.0;78.0;
78695;SPS30;68030;51.980;5.646;2023-09-19T02:18:22;4.0;3.7;3.1;2.3;;;;2.0;79.0;
78695;SPS30;68030;51.980;5.646;2023-09-19T02:20:54;3.9;3.6;3.0;2.1;;;;2.0;82.0;
78695;SPS30;68030;51.980;5.646;2023-09-19T02:23:24;4.2;3.9;3.4;2.5;;;;2.0;85.0;
78695;SPS30;68030;51.980;5.646;2023-09-19T02:25:56;3.4;3.2;2.8;2.2;;;;2.0;85.0;
78695;SPS30;68030;51.980;5.646;2023-09-19T02:28:26;3.9;3.6;3.1;2.3;;;;2.0;85.0;
78695;SPS30;68030;51.980;5.646;2023-09-19T02:30:58;4.1;3.8;3.1;2.3;;;;2.0;85.0;
78695;SPS30;68030;51.980;5.646;2023-09-19T02:33:27;3.6;3.3;2.8;2.1;;;;2.0;85.0;
78695;SPS30;68030;51.980;5.646;2023-09-19T02:35:59;3.9;3.6;3.0;2.2;;;;2.0;84.0;
78695;SPS30;68030;51.980;5.646;2023-09-19T02:38:30;4.5;4.2;3.5;2.5;;;;2.0;83.0;
78695;SPS30;68030;51.980;5.646;2023-09-19T02:40:58;4.6;4.3;3.6;2.6;;;;2.0;82.0;
78695;SPS30;68030;51.980;5.646;2023-09-19T02:43:29;3.9;3.7;3.0;2.2;;;;2.0;81.0;
78695;SPS30;68030;51.980;5.646;2023-09-19T02:46:02;3.9;3.7;3.1;2.2;;;;2.0;80.0;
78695;SPS30;68030;51.980;5.646;2023-09-19T02:48:31;4.3;4.0;3.4;2.5;;;;2.0;78.0;
78695;SPS30;68030;51.980;5.646;2023-09-19T02:51:00;4.1;3.8;3.2;2.4;;;;2.0;77.0;
78695;SPS30;68030;51.980;5.646;2023-09-19T02:53:29;3.9;3.6;3.0;2.2;;;;2.0;73.0;
78695;SPS30;68030;51.980;5.646;2023-09-19T02:55:59;4.7;4.3;3.6;2.6;;;;2.0;70.0;
78695;SPS30;68030;51.980;5.646;2023-09-19T02:58:28;4.5;4.2;3.4;2.4;;;;2.0;67.0;
78695;SPS30;68030;51.980;5.646;2023-09-19T03:01:01;3.9;3.6;3.0;2.1;;;;2.0;63.0;
78695;SPS30;68030;51.980;5.646;2023-09-19T03:03:39;4.6;4.3;3.5;2.4;;;;2.0;61.0;
78695;SPS30;68030;51.980;5.646;2023-09-19T03:06:08;5.1;4.7;3.9;2.8;;;;2.0;60.0;
78695;SPS30;68030;51.980;5.646;2023-09-19T03:08:39;3.7;3.5;2.9;2.0;;;;2.0;58.0;
78695;SPS30;68030;51.980;5.646;2023-09-19T03:11:08;3.7;3.4;2.9;2.1;;;;2.0;56.0;
78695;SPS30;68030;51.980;5.646;2023-09-19T03:13:39;3.7;3.4;2.9;2.1;;;;2.0;54.0;
78695;SPS30;68030;51.980;5.646;2023-09-19T03:16:08;3.9;3.6;3.0;2.2;;;;2.0;53.0;
78695;SPS30;68030;51.980;5.646;2023-09-19T03:18:37;4.1;3.8;3.2;2.3;;;;2.0;52.0;
78695;SPS30;68030;51.980;5.646;2023-09-19T03:21:05;3.7;3.4;2.9;2.2;;;;2.0;51.0;
78695;SPS30;68030;51.980;5.646;2023-09-19T03:23:36;3.7;3.4;2.9;2.1;;;;2.0;51.0;
78695;SPS30;68030;51.980;5.646;2023-09-19T03:26:07;3.6;3.3;2.7;2.0;;;;2.0;51.0;
78695;SPS30;68030;51.980;5.646;2023-09-19T03:28:36;3.5;3.2;2.6;1.7;;;;2.0;50.0;
78695;SPS30;68030;51.980;5.646;2023-09-19T03:31:05;4.7;4.3;3.4;2.3;;;;2.0;50.0;
78695;SPS30;68030;51.980;5.646;2023-09-19T03:33:35;3.7;3.5;2.8;2.0;;;;2.0;50.0;
78695;SPS30;68030;51.980;5.646;2023-09-19T03:36:04;3.9;3.6;3.1;2.3;;;;2.0;51.0;
78695;SPS30;68030;51.980;5.646;2023-09-19T03:38:35;4.5;4.2;3.6;2.7;;;;2.0;52.0;
78695;SPS30;68030;51.980;5.646;2023-09-19T03:41:04;4.6;4.3;3.6;2.7;;;;2.0;55.0;
78695;SPS30;68030;51.980;5.646;2023-09-19T03:43:33;4.1;3.8;3.3;2.4;;;;2.0;59.0;
78695;SPS30;68030;51.980;5.646;2023-09-19T03:46:02;3.4;3.2;2.7;2.0;;;;2.0;63.0;
78695;SPS30;68030;51.980;5.646;2023-09-19T03:48:34;3.8;3.5;3.0;2.2;;;;2.0;73.0;
78695;SPS30;68030;51.980;5.646;2023-09-19T03:51:02;3.8;3.5;2.9;2.1;;;;2.0;74.0;
78695;SPS30;68030;51.980;5.646;2023-09-19T03:53:31;3.9;3.6;3.0;2.2;;;;2.0;75.0;
78695;SPS30;68030;51.980;5.646;2023-09-19T03:56:01;4.7;4.3;3.5;2.4;;;;2.0;75.0;
78695;SPS30;68030;51.980;5.646;2023-09-19T03:58:31;4.3;4.0;3.3;2.3;;;;2.0;74.0;
78695;SPS30;68030;51.980;5.646;2023-09-19T04:01:01;3.9;3.6;3.1;2.2;;;;2.0;76.0;
78695;SPS30;68030;51.980;5.646;2023-09-19T04:03:29;4.3;4.0;3.3;2.3;;;;2.0;75.0;
78695;SPS30;68030;51.980;5.646;2023-09-19T04:06:01;4.2;3.9;3.3;2.4;;;;2.0;75.0;
78695;SPS30;68030;51.980;5.646;2023-09-19T04:08:30;4.6;4.3;3.6;2.6;;;;2.0;74.0;
78695;SPS30;68030;51.980;5.646;2023-09-19T04:11:00;3.8;3.6;3.0;2.2;;;;2.0;78.0;
78695;SPS30;68030;51.980;5.646;2023-09-19T04:13:28;3.8;3.5;2.9;2.1;;;;2.0;78.0;
78695;SPS30;68030;51.980;5.646;2023-09-19T04:15:58;4.2;3.8;3.2;2.2;;;;2.0;77.0;
78695;SPS30;68030;51.980;5.646;2023-09-19T04:18:30;3.5;3.3;2.7;2.0;;;;2.0;74.0;
78695;SPS30;68030;51.980;5.646;2023-09-19T04:21:00;4.8;4.4;3.7;2.6;;;;2.0;71.0;
78695;SPS30;68030;51.980;5.646;2023-09-19T04:23:31;3.7;3.4;2.9;2.1;;;;2.0;73.0;
78695;SPS30;68030;51.980;5.646;2023-09-19T04:26:00;2.8;2.6;2.2;1.7;;;;2.0;75.0;
78695;SPS30;68030;51.980;5.646;2023-09-19T04:28:30;3.3;3.1;2.7;2.1;;;;2.0;76.0;
78695;SPS30;68030;51.980;5.646;2023-09-19T04:31:00;3.1;2.9;2.4;1.8;;;;2.0;79.0;
78695;SPS30;68030;51.980;5.646;2023-09-19T04:33:28;3.9;3.6;3.1;2.3;;;;2.0;85.0;
78695;SPS30;68030;51.980;5.646;2023-09-19T04:36:01;3.6;3.4;2.8;2.1;;;;2.0;84.0;
78695;SPS30;68030;51.980;5.646;2023-09-19T04:38:33;3.9;3.6;3.0;2.2;;;;2.0;82.0;
78695;SPS30;68030;51.980;5.646;2023-09-19T04:41:02;3.8;3.5;2.9;2.0;;;;2.0;82.0;
78695;SPS30;68030;51.980;5.646;2023-09-19T04:43:31;3.8;3.6;3.0;2.2;;;;2.0;82.0;
78695;SPS30;68030;51.980;5.646;2023-09-19T04:46:01;3.7;3.4;3.0;2.3;;;;2.0;84.0;
78695;SPS30;68030;51.980;5.646;2023-09-19T04:48:32;3.5;3.3;2.8;2.1;;;;2.0;86.0;
78695;SPS30;68030;51.980;5.646;2023-09-19T04:51:02;3.0;2.8;2.4;1.9;;;;2.0;88.0;
78695;SPS30;68030;51.980;5.646;2023-09-19T04:53:31;4.1;3.8;3.3;2.5;;;;2.0;88.0;
78695;SPS30;68030;51.980;5.646;2023-09-19T04:55:59;4.0;3.7;3.1;2.3;;;;2.0;88.0;
78695;SPS30;68030;51.980;5.646;2023-09-19T04:58:33;3.2;3.0;2.6;1.9;;;;2.0;85.0;
78695;SPS30;68030;51.980;5.646;2023-09-19T05:01:01;3.9;3.6;3.0;2.2;;;;2.0;84.0;
78695;SPS30;68030;51.980;5.646;2023-09-19T05:03:31;3.3;3.0;2.5;1.8;;;;2.0;84.0;
78695;SPS30;68030;51.980;5.646;2023-09-19T05:05:59;4.1;3.8;3.2;2.4;;;;2.0;84.0;
78695;SPS30;68030;51.980;5.646;2023-09-19T05:08:29;3.7;3.4;2.9;2.1;;;;2.0;82.0;
78695;SPS30;68030;51.980;5.646;2023-09-19T05:10:57;3.5;3.2;2.7;2.0;;;;2.0;82.0;
78695;SPS30;68030;51.980;5.646;2023-09-19T05:13:27;3.6;3.3;2.8;2.1;;;;2.0;80.0;
78695;SPS30;68030;51.980;5.646;2023-09-19T05:15:57;4.3;4.0;3.3;2.3;;;;2.0;77.0;
78695;SPS30;68030;51.980;5.646;2023-09-19T05:18:29;3.8;3.5;3.0;2.1;;;;2.0;78.0;
78695;SPS30;68030;51.980;5.646;2023-09-19T05:20:58;3.8;3.6;3.0;2.2;;;;2.0;90.0;
78695;SPS30;68030;51.980;5.646;2023-09-19T05:23:29;3.7;3.4;2.9;2.1;;;;2.0;92.0;
78695;SPS30;68030;51.980;5.646;2023-09-19T05:25:59;3.7;3.4;2.8;2.0;;;;2.0;90.0;
78695;SPS30;68030;51.980;5.646;2023-09-19T05:28:30;4.0;3.7;3.1;2.2;;;;2.0;89.0;
78695;SPS30;68030;51.980;5.646;2023-09-19T05:31:01;4.5;4.1;3.4;2.4;;;;2.0;88.0;
78695;SPS30;68030;51.980;5.646;2023-09-19T05:33:30;4.5;4.2;3.4;2.4;;;;2.0;93.0;
78695;SPS30;68030;51.980;5.646;2023-09-19T05:36:00;3.7;3.4;2.9;2.1;;;;2.0;91.0;
78695;SPS30;68030;51.980;5.646;2023-09-19T05:38:29;3.6;3.4;2.8;2.1;;;;2.0;91.0;
78695;SPS30;68030;51.980;5.646;2023-09-19T05:40:58;4.3;3.9;3.3;2.3;;;;2.0;91.0;
78695;SPS30;68030;51.980;5.646;2023-09-19T05:43:28;3.9;3.6;3.1;2.3;;;;2.0;95.0;
78695;SPS30;68030;51.980;5.646;2023-09-19T05:45:57;3.9;3.6;3.0;2.2;;;;2.0;113.0;
78695;SPS30;68030;51.980;5.646;2023-09-19T05:48:29;4.2;3.9;3.2;2.3;;;;2.0;119.0;
78695;SPS30;68030;51.980;5.646;2023-09-19T05:50:57;3.4;3.1;2.6;1.9;;;;2.0;113.0;
78695;SPS30;68030;51.980;5.646;2023-09-19T05:53:28;4.4;4.1;3.4;2.4;;;;2.0;135.0;
78695;SPS30;68030;51.980;5.646;2023-09-19T05:55:57;4.0;3.7;3.1;2.2;;;;2.0;125.0;
78695;SPS30;68030;51.980;5.646;2023-09-19T05:58:27;3.8;3.5;2.9;2.0;;;;2.0;122.0;
78695;SPS30;68030;51.980;5.646;2023-09-19T06:00:56;4.1;3.8;3.1;2.2;;;;2.0;120.0;
78695;SPS30;68030;51.980;5.646;2023-09-19T06:03:25;4.3;3.9;3.2;2.2;;;;2.0;113.0;
78695;SPS30;68030;51.980;5.646;2023-09-19T06:05:55;4.1;3.8;3.1;2.2;;;;2.0;111.0;
78695;SPS30;68030;51.980;5.646;2023-09-19T06:08:24;3.5;3.2;2.7;1.9;;;;1.0;163.0;
78695;SPS30;68030;51.980;5.646;2023-09-19T06:10:54;4.3;4.0;3.3;2.3;;;;1.0;137.0;
78695;SPS30;68030;51.980;5.646;2023-09-19T06:13:23;4.3;4.0;3.2;2.2;;;;1.0;121.0;
78695;SPS30;68030;51.980;5.646;2023-09-19T06:15:52;4.4;4.0;3.2;2.1;;;;1.0;103.0;
78695;SPS30;68030;51.980;5.646;2023-09-19T06:18:22;4.5;4.1;3.3;2.2;;;;1.0;104.0;
78695;SPS30;68030;51.980;5.646;2023-09-19T06:20:52;3.5;3.2;2.6;1.9;;;;1.0;111.0;
78695;SPS30;68030;51.980;5.646;2023-09-19T06:23:22;4.3;4.0;3.3;2.3;;;;1.0;114.0;
78695;SPS30;68030;51.980;5.646;2023-09-19T06:25:52;4.0;3.7;3.0;2.0;;;;1.0;107.0;
78695;SPS30;68030;51.980;5.646;2023-09-19T06:28:21;4.4;4.1;3.3;2.3;;;;1.0;104.0;
78695;SPS30;68030;51.980;5.646;2023-09-19T06:30:51;3.5;3.2;2.7;1.9;;;;1.0;103.0;
78695;SPS30;68030;51.980;5.646;2023-09-19T06:33:20;3.6;3.3;2.8;2.0;;;;1.0;105.0;
78695;SPS30;68030;51.980;5.646;2023-09-19T06:35:49;4.6;4.2;3.4;2.3;;;;1.0;106.0;
78695;SPS30;68030;51.980;5.646;2023-09-19T06:38:24;4.0;3.7;3.0;2.0;;;;1.0;109.0;
78695;SPS30;68030;51.980;5.646;2023-09-19T06:40:54;4.6;4.3;3.5;2.4;;;;1.0;109.0;
78695;SPS30;68030;51.980;5.646;2023-09-19T06:43:27;5.0;4.6;3.8;2.6;;;;1.0;110.0;
78695;SPS30;68030;51.980;5.646;2023-09-19T06:45:56;4.6;4.3;3.5;2.5;;;;1.0;112.0;
78695;SPS30;68030;51.980;5.646;2023-09-19T06:48:26;4.5;4.2;3.4;2.3;;;;1.0;112.0;
78695;SPS30;68030;51.980;5.646;2023-09-19T06:50:55;4.5;4.1;3.4;2.3;;;;1.0;109.0;
78695;SPS30;68030;51.980;5.646;2023-09-19T06:53:30;4.1;3.8;3.1;2.1;;;;1.0;103.0;
78695;SPS30;68030;51.980;5.646;2023-09-19T06:56:01;4.7;4.3;3.5;2.5;;;;1.0;107.0;
78695;SPS30;68030;51.980;5.646;2023-09-19T06:58:31;4.8;4.4;3.5;2.4;;;;1.0;111.0;
78695;SPS30;68030;51.980;5.646;2023-09-19T07:01:03;5.0;4.6;3.7;2.5;;;;1.0;104.0;
78695;SPS30;68030;51.980;5.646;2023-09-19T07:03:31;4.4;4.0;3.2;2.1;;;;1.0;101.0;
78695;SPS30;68030;51.980;5.646;2023-09-19T07:06:00;3.9;3.6;3.0;2.1;;;;1.0;102.0;
78695;SPS30;68030;51.980;5.646;2023-09-19T07:08:30;4.4;4.1;3.3;2.3;;;;1.0;105.0;
78695;SPS30;68030;51.980;5.646;2023-09-19T07:10:59;4.9;4.5;3.6;2.4;;;;1.0;109.0;
78695;SPS30;68030;51.980;5.646;2023-09-19T07:13:28;4.1;3.8;3.1;2.2;;;;1.0;108.0;
78695;SPS30;68030;51.980;5.646;2023-09-19T07:15:57;5.3;4.9;4.0;2.8;;;;1.0;114.0;
78695;SPS30;68030;51.980;5.646;2023-09-19T07:18:27;4.0;3.7;3.1;2.2;;;;1.0;108.0;
78695;SPS30;68030;51.980;5.646;2023-09-19T07:20:58;4.9;4.5;3.7;2.6;;;;1.0;105.0;
78695;SPS30;68030;51.980;5.646;2023-09-19T07:23:31;5.0;4.6;3.8;2.7;;;;1.0;104.0;
78695;SPS30;68030;51.980;5.646;2023-09-19T07:26:02;5.4;5.0;4.0;2.8;;;;1.0;103.0;
78695;SPS30;68030;51.980;5.646;2023-09-19T07:28:31;4.5;4.2;3.4;2.4;;;;1.0;103.0;
78695;SPS30;68030;51.980;5.646;2023-09-19T07:31:03;4.6;4.2;3.4;2.3;;;;1.0;101.0;
78695;SPS30;68030;51.980;5.646;2023-09-19T07:33:33;4.5;4.1;3.4;2.3;;;;1.0;105.0;
78695;SPS30;68030;51.980;5.646;2023-09-19T07:36:02;4.9;4.5;3.6;2.5;;;;1.0;105.0;
78695;SPS30;68030;51.980;5.646;2023-09-19T07:38:32;3.6;3.3;2.7;1.9;;;;1.0;106.0;
78695;SPS30;68030;51.980;5.646;2023-09-19T07:41:02;4.6;4.2;3.4;2.4;;;;1.0;120.0;
78695;SPS30;68030;51.980;5.646;2023-09-19T07:43:31;4.3;4.0;3.3;2.3;;;;1.0;118.0;
78695;SPS30;68030;51.980;5.646;2023-09-19T07:46:02;4.9;4.5;3.7;2.5;;;;1.0;117.0;
78695;SPS30;68030;51.980;5.646;2023-09-19T07:48:33;5.8;5.3;4.2;2.8;;;;1.0;122.0;
78695;SPS30;68030;51.980;5.646;2023-09-19T07:51:04;5.2;4.8;3.8;2.4;;;;1.0;120.0;
78695;SPS30;68030;51.980;5.646;2023-09-19T07:53:35;5.1;4.7;3.7;2.4;;;;1.0;119.0;
78695;SPS30;68030;51.980;5.646;2023-09-19T07:56:06;4.6;4.2;3.3;2.1;;;;1.0;121.0;
78695;SPS30;68030;51.980;5.646;2023-09-19T07:58:38;5.5;5.0;3.9;2.5;;;;1.0;120.0;
78695;SPS30;68030;51.980;5.646;2023-09-19T08:01:10;5.6;5.1;4.0;2.5;;;;1.0;118.0;
78695;SPS30;68030;51.980;5.646;2023-09-19T08:03:40;4.9;4.5;3.6;2.4;;;;1.0;214.0;
78695;SPS30;68030;51.980;5.646;2023-09-19T08:06:09;5.0;4.6;3.7;2.5;;;;1.0;148.0;
78695;SPS30;68030;51.980;5.646;2023-09-19T08:08:40;4.3;3.9;3.2;2.1;;;;1.0;142.0;
78695;SPS30;68030;51.980;5.646;2023-09-19T08:11:09;5.2;4.8;3.8;2.5;;;;1.0;124.0;
78695;SPS30;68030;51.980;5.646;2023-09-19T08:13:38;5.2;4.8;3.8;2.5;;;;1.0;112.0;
78695;SPS30;68030;51.980;5.646;2023-09-19T08:16:10;5.0;4.6;3.7;2.5;;;;1.0;104.0;
78695;SPS30;68030;51.980;5.646;2023-09-19T08:18:41;4.9;4.5;3.6;2.4;;;;1.0;109.0;
78695;SPS30;68030;51.980;5.646;2023-09-19T08:21:11;4.7;4.3;3.4;2.3;;;;1.0;111.0;
78695;SPS30;68030;51.980;5.646;2023-09-19T08:23:42;5.8;5.3;4.2;2.7;;;;1.0;111.0;
78695;SPS30;68030;51.980;5.646;2023-09-19T08:26:10;5.0;4.6;3.6;2.4;;;;1.0;109.0;
78695;SPS30;68030;51.980;5.646;2023-09-19T08:28:39;6.0;5.4;4.2;2.6;;;;1.0;114.0;
78695;SPS30;68030;51.980;5.646;2023-09-19T08:31:08;5.4;4.9;3.9;2.5;;;;1.0;123.0;
78695;SPS30;68030;51.980;5.646;2023-09-19T08:33:37;6.7;6.0;4.7;2.9;;;;1.0;123.0;
78695;SPS30;68030;51.980;5.646;2023-09-19T08:36:06;6.5;5.9;4.5;2.8;;;;1.0;122.0;
78695;SPS30;68030;51.980;5.646;2023-09-19T08:38:35;5.8;5.2;4.1;2.6;;;;1.0;123.0;
78695;SPS30;68030;51.980;5.646;2023-09-19T08:41:07;6.8;6.2;4.8;2.9;;;;1.0;122.0;
78695;SPS30;68030;51.980;5.646;2023-09-19T08:43:36;5.9;5.4;4.2;2.7;;;;1.0;118.0;
78695;SPS30;68030;51.980;5.646;2023-09-19T08:46:08;5.9;5.4;4.2;2.8;;;;1.0;121.0;
78695;SPS30;68030;51.980;5.646;2023-09-19T08:48:42;5.8;5.2;4.2;2.7;;;;1.0;130.0;
78695;SPS30;68030;51.980;5.646;2023-09-19T08:51:18;5.6;5.1;4.1;2.7;;;;1.0;128.0;
78695;SPS30;68030;51.980;5.646;2023-09-19T08:54:01;5.6;5.1;4.0;2.6;;;;1.0;126.0;
78695;SPS30;68030;51.980;5.646;2023-09-19T08:56:36;5.1;4.6;3.7;2.4;;;;1.0;130.0;
78695;SPS30;68030;51.980;5.646;2023-09-19T08:59:09;5.6;5.2;4.1;2.8;;;;1.0;137.0;
78695;SPS30;68030;51.980;5.646;2023-09-19T09:01:39;5.1;4.7;3.8;2.6;;;;1.0;136.0;
78695;SPS30;68030;51.980;5.646;2023-09-19T09:04:09;4.1;3.8;3.0;2.0;;;;1.0;121.0;
78695;SPS30;68030;51.980;5.646;2023-09-19T09:06:39;5.2;4.7;3.8;2.5;;;;1.0;121.0;
78695;SPS30;68030;51.980;5.646;2023-09-19T09:09:14;5.1;4.6;3.7;2.4;;;;1.0;129.0;
78695;SPS30;68030;51.980;5.646;2023-09-19T09:11:43;5.8;5.2;4.0;2.5;;;;1.0;134.0;
78695;SPS30;68030;51.980;5.646;2023-09-19T09:14:12;5.2;4.7;3.7;2.4;;;;1.0;125.0;
78695;SPS30;68030;51.980;5.646;2023-09-19T09:16:42;5.1;4.7;3.7;2.4;;;;1.0;115.0;
78695;SPS30;68030;51.980;5.646;2023-09-19T09:19:11;5.2;4.7;3.7;2.4;;;;1.0;110.0;
78695;SPS30;68030;51.980;5.646;2023-09-19T09:21:40;5.2;4.8;3.8;2.6;;;;1.0;111.0;
78695;SPS30;68030;51.980;5.646;2023-09-19T09:24:29;4.5;4.1;3.3;2.2;;;;1.0;115.0;
78695;SPS30;68030;51.980;5.646;2023-09-19T09:27:00;4.1;3.8;3.0;2.0;;;;1.0;101.0;
78695;SPS30;68030;51.980;5.646;2023-09-19T09:29:52;3.9;3.5;2.9;1.9;;;;1.0;94.0;
78695;SPS30;68030;51.980;5.646;2023-09-19T09:32:24;5.3;4.8;3.9;2.6;;;;1.0;86.0;
78695;SPS30;68030;51.980;5.646;2023-09-19T09:34:55;5.0;4.6;3.7;2.5;;;;1.0;90.0;
78695;SPS30;68030;51.980;5.646;2023-09-19T09:37:25;4.8;4.4;3.5;2.4;;;;1.0;99.0;
78695;SPS30;68030;51.980;5.646;2023-09-19T09:39:57;5.1;4.7;3.8;2.5;;;;1.0;94.0;
78695;SPS30;68030;51.980;5.646;2023-09-19T09:42:35;5.2;4.7;3.8;2.6;;;;1.0;95.0;
78695;SPS30;68030;51.980;5.646;2023-09-19T09:45:14;5.3;4.8;3.8;2.5;;;;1.0;102.0;
78695;SPS30;68030;51.980;5.646;2023-09-19T09:47:46;7.1;6.4;5.0;3.1;;;;1.0;100.0;
78695;SPS30;68030;51.980;5.646;2023-09-19T09:50:26;4.3;3.9;3.1;2.0;;;;1.0;99.0;
78695;SPS30;68030;51.980;5.646;2023-09-19T09:53:21;5.5;5.0;4.0;2.6;;;;1.0;117.0;
78695;SPS30;68030;51.980;5.646;2023-09-19T09:56:02;5.2;4.7;3.7;2.4;;;;1.0;109.0;
78695;SPS30;68030;51.980;5.646;2023-09-19T09:58:35;6.3;5.7;4.5;2.9;;;;1.0;103.0;
78695;SPS30;68030;51.980;5.646;2023-09-19T10:01:06;4.6;4.2;3.4;2.3;;;;1.0;106.0;
78695;SPS30;68030;51.980;5.646;2023-09-19T10:03:42;5.8;5.3;4.2;2.7;;;;1.0;108.0;
78695;SPS30;68030;51.980;5.646;2023-09-19T10:06:14;5.6;5.1;4.0;2.6;;;;1.0;123.0;
78695;SPS30;68030;51.980;5.646;2023-09-19T10:09:12;5.4;4.9;3.9;2.5;;;;1.0;126.0;
78695;SPS30;68030;51.980;5.646;2023-09-19T10:11:46;4.7;4.3;3.4;2.1;;;;1.0;119.0;
78695;SPS30;68030;51.980;5.646;2023-09-19T10:14:21;4.8;4.3;3.4;2.2;;;;1.0;113.0;
78695;SPS30;68030;51.980;5.646;2023-09-19T10:16:58;5.3;4.8;3.9;2.6;;;;1.0;119.0;
78695;SPS30;68030;51.980;5.646;2023-09-19T10:19:33;5.2;4.7;3.8;2.5;;;;1.0;123.0;
78695;SPS30;68030;51.980;5.646;2023-09-19T10:22:12;4.7;4.3;3.4;2.2;;;;1.0;122.0;
78695;SPS30;68030;51.980;5.646;2023-09-19T10:24:46;4.5;4.1;3.3;2.2;;;;1.0;123.0;
78695;SPS30;68030;51.980;5.646;2023-09-19T10:27:18;4.8;4.4;3.5;2.4;;;;1.0;133.0;
78695;SPS30;68030;51.980;5.646;2023-09-19T10:29:48;3.3;3.0;2.6;2.0;;;;1.0;146.0;
78695;SPS30;68030;51.980;5.646;2023-09-19T10:32:21;3.3;3.1;2.6;1.9;;;;1.0;143.0;
78695;SPS30;68030;51.980;5.646;2023-09-19T10:34:51;3.9;3.6;3.0;2.2;;;;1.0;140.0;
78695;SPS30;68030;51.980;5.646;2023-09-19T10:37:21;4.4;4.1;3.4;2.4;;;;1.0;140.0;
78695;SPS30;68030;51.980;5.646;2023-09-19T10:39:55;4.5;4.1;3.3;2.2;;;;1.0;139.0;
78695;SPS30;68030;51.980;5.646;2023-09-19T10:42:25;4.6;4.2;3.4;2.3;;;;1.0;137.0;
78695;SPS30;68030;51.980;5.646;2023-09-19T10:44:57;5.6;5.1;4.1;2.6;;;;1.0;137.0;
78695;SPS30;68030;51.980;5.646;2023-09-19T10:47:34;4.2;3.9;3.1;2.1;;;;1.0;137.0;
78695;SPS30;68030;51.980;5.646;2023-09-19T10:50:04;4.4;4.1;3.3;2.4;;;;1.0;140.0;
78695;SPS30;68030;51.980;5.646;2023-09-19T10:52:40;3.9;3.6;3.0;2.1;;;;1.0;158.0;
78695;SPS30;68030;51.980;5.646;2023-09-19T10:55:12;4.9;4.5;3.7;2.6;;;;1.0;158.0;
78695;SPS30;68030;51.980;5.646;2023-09-19T10:57:46;4.1;3.8;3.1;2.2;;;;1.0;160.0;
78695;SPS30;68030;51.980;5.646;2023-09-19T11:00:15;3.4;3.1;2.6;1.9;;;;1.0;156.0;
78695;SPS30;68030;51.980;5.646;2023-09-19T11:06:03;3.5;3.3;2.8;2.1;;;;1.0;154.0;
78695;SPS30;68030;51.980;5.646;2023-09-19T11:08:55;3.6;3.4;3.0;2.4;;;;1.0;162.0;
78695;SPS30;68030;51.980;5.646;2023-09-19T11:11:49;2.7;2.6;2.3;1.8;;;;1.0;158.0;
78695;SPS30;68030;51.980;5.646;2023-09-19T11:17:33;4.1;3.8;3.3;2.5;;;;1.0;159.0;
78695;SPS30;68030;51.980;5.646;2023-09-19T11:20:21;3.5;3.3;2.8;2.1;;;;1.0;164.0;
78695;SPS30;68030;51.980;5.646;2023-09-19T11:23:19;3.2;3.0;2.6;2.0;;;;1.0;177.0;
78695;SPS30;68030;51.980;5.646;2023-09-19T11:25:53;2.7;2.5;2.1;1.6;;;;1.0;178.0;
78695;SPS30;68030;51.980;5.646;2023-09-19T11:28:32;2.8;2.6;2.2;1.7;;;;1.0;175.0;
78695;SPS30;68030;51.980;5.646;2023-09-19T11:31:40;3.0;2.8;2.4;1.8;;;;1.0;174.0;
78695;SPS30;68030;51.980;5.646;2023-09-19T11:38:00;3.2;3.0;2.5;1.9;;;;1.0;163.0;
78695;SPS30;68030;51.980;5.646;2023-09-19T11:40:33;3.6;3.3;2.8;2.0;;;;1.0;160.0;
78695;SPS30;68030;51.980;5.646;2023-09-19T11:43:02;2.7;2.5;2.2;1.6;;;;1.0;160.0;
78695;SPS30;68030;51.980;5.646;2023-09-19T11:46:07;3.0;2.8;2.3;1.7;;;;1.0;161.0;
78695;SPS30;68030;51.980;5.646;2023-09-19T11:48:37;2.7;2.5;2.1;1.6;;;;1.0;175.0;
78695;SPS30;68030;51.980;5.646;2023-09-19T11:51:15;3.2;3.0;2.4;1.7;;;;1.0;172.0;
78695;SPS30;68030;51.980;5.646;2023-09-19T11:53:53;3.1;2.8;2.4;1.8;;;;1.0;171.0;
78695;SPS30;68030;51.980;5.646;2023-09-19T11:56:24;2.7;2.5;2.1;1.5;;;;1.0;149.0;
78695;SPS30;68030;51.980;5.646;2023-09-19T11:58:54;3.1;2.9;2.4;1.7;;;;1.0;147.0;
78695;SPS30;68030;51.980;5.646;2023-09-19T12:01:28;2.7;2.5;2.1;1.5;;;;1.0;151.0;
78695;SPS30;68030;51.980;5.646;2023-09-19T12:04:00;2.9;2.7;2.3;1.6;;;;1.0;154.0;
78695;SPS30;68030;51.980;5.646;2023-09-19T12:06:30;2.9;2.7;2.3;1.7;;;;1.0;164.0;
78695;SPS30;68030;51.980;5.646;2023-09-19T12:09:00;2.4;2.2;1.9;1.3;;;;1.0;167.0;
78695;SPS30;68030;51.980;5.646;2023-09-19T12:11:41;2.8;2.6;2.1;1.5;;;;1.0;164.0;
78695;SPS30;68030;51.980;5.646;2023-09-19T12:14:10;2.1;2.0;1.7;1.2;;;;1.0;138.0;
78695;SPS30;68030;51.980;5.646;2023-09-19T12:16:40;2.6;2.4;2.0;1.5;;;;1.0;137.0;
78695;SPS30;68030;51.980;5.646;2023-09-19T12:19:49;2.3;2.2;1.9;1.4;;;;1.0;132.0;
78695;SPS30;68030;51.980;5.646;2023-09-19T12:22:20;1.8;1.7;1.5;1.1;;;;1.0;135.0;
78695;SPS30;68030;51.980;5.646;2023-09-19T12:24:48;2.0;1.9;1.6;1.2;;;;1.0;135.0;
78695;SPS30;68030;51.980;5.646;2023-09-19T12:27:20;2.5;2.3;1.9;1.4;;;;1.0;144.0;
78695;SPS30;68030;51.980;5.646;2023-09-19T12:29:52;2.6;2.5;2.1;1.6;;;;1.0;146.0;
78695;SPS30;68030;51.980;5.646;2023-09-19T12:32:35;2.7;2.6;2.2;1.6;;;;1.0;138.0;
78695;SPS30;68030;51.980;5.646;2023-09-19T12:35:07;1.9;1.7;1.5;1.1;;;;1.0;136.0;
78695;SPS30;68030;51.980;5.646;2023-09-19T12:37:37;1.9;1.8;1.5;1.2;;;;1.0;129.0;
78695;SPS30;68030;51.980;5.646;2023-09-19T12:40:15;1.9;1.8;1.6;1.2;;;;1.0;130.0;
78695;SPS30;68030;51.980;5.646;2023-09-19T12:42:48;1.9;1.8;1.5;1.2;;;;1.0;130.0;